createdAt,value
2023-05-19T00:01:00.291Z,63.65
2023-05-19T00:03:27.119Z,63.70
2023-05-19T00:05:54.337Z,64.07
2023-05-19T00:08:23.311Z,64.24
2023-05-19T00:10:49.981Z,64.44
2023-05-19T00:13:16.674Z,65.48
2023-05-19T00:15:43.357Z,64.44
2023-05-19T00:18:09.930Z,65.23
2023-05-19T00:20:38.046Z,65.33
2023-05-19T00:23:04.564Z,64.95
2023-05-19T00:25:30.995Z,64.30
2023-05-19T00:27:59.201Z,64.52
2023-05-19T00:30:26.114Z,64.69
2023-05-19T00:32:52.720Z,65.66
2023-05-19T00:35:20.037Z,66.20
2023-05-19T00:37:46.710Z,66.18
2023-05-19T00:40:13.572Z,66.18
2023-05-19T00:42:41.247Z,67.29
2023-05-19T00:45:08.494Z,67.54
2023-05-19T00:47:35.208Z,67.71
2023-05-19T00:50:01.806Z,67.13
2023-05-19T00:52:28.394Z,66.52
2023-05-19T00:54:55.648Z,66.75
2023-05-19T00:57:22.356Z,67.87
2023-05-19T00:59:49.004Z,69.61
2023-05-19T01:02:15.794Z,69.39
2023-05-19T01:04:43.978Z,69.01
2023-05-19T01:07:12.451Z,70.01
2023-05-19T01:09:40.736Z,70.08
2023-05-19T01:12:08.669Z,68.51
2023-05-19T01:14:35.424Z,69.36
2023-05-19T01:17:08.824Z,68.38
2023-05-19T01:19:50.779Z,69.37
2023-05-19T01:22:55.185Z,68.90
2023-05-19T01:25:47.762Z,68.95
2023-05-19T01:28:41.951Z,67.78
2023-05-19T01:31:11.805Z,67.89
2023-05-19T01:33:41.123Z,68.10
2023-05-19T01:36:08.382Z,68.12
2023-05-19T01:38:38.478Z,68.88
2023-05-19T01:41:06.959Z,69.12
2023-05-19T01:43:35.943Z,68.53
2023-05-19T01:46:03.290Z,68.06
2023-05-19T01:48:30.655Z,68.99
2023-05-19T01:50:57.925Z,68.96
2023-05-19T01:53:24.975Z,68.91
2023-05-19T01:55:53.864Z,68.69
2023-05-19T01:58:20.628Z,68.44
2023-05-19T02:01:13.610Z,69.57
2023-05-19T02:04:08.800Z,70.42
2023-05-19T02:06:49.329Z,70.08
2023-05-19T02:09:23.066Z,70.51
2023-05-19T02:11:56.234Z,70.69
2023-05-19T02:14:50.061Z,69.98
2023-05-19T02:17:18.480Z,70.32
2023-05-19T02:19:46.371Z,69.40
2023-05-19T02:22:14.367Z,69.76
2023-05-19T02:24:41.401Z,70.33
2023-05-19T02:27:07.969Z,70.11
2023-05-19T02:29:34.441Z,69.22
2023-05-19T02:32:02.231Z,69.43
2023-05-19T02:34:28.783Z,69.88
2023-05-19T02:36:56.401Z,69.52
2023-05-19T02:39:22.903Z,69.93
2023-05-19T02:41:49.562Z,70.40
2023-05-19T02:44:16.142Z,70.58
2023-05-19T02:46:42.731Z,71.31
2023-05-19T02:49:09.252Z,71.66
2023-05-19T02:51:35.720Z,71.74
2023-05-19T02:54:02.317Z,70.79
2023-05-19T02:56:28.791Z,70.85
2023-05-19T02:58:55.269Z,70.37
2023-05-19T03:01:22.975Z,70.97
2023-05-19T03:03:49.709Z,70.64
2023-05-19T03:06:17.972Z,71.00
2023-05-19T03:08:45.004Z,70.65
2023-05-19T03:11:11.538Z,71.46
2023-05-19T03:13:38.060Z,70.72
2023-05-19T03:16:04.690Z,70.87
2023-05-19T03:18:31.691Z,70.59
2023-05-19T03:20:59.264Z,70.75
2023-05-19T03:23:26.615Z,70.26
2023-05-19T03:25:56.312Z,70.58
2023-05-19T03:28:23.380Z,70.07
2023-05-19T03:30:52.825Z,71.01
2023-05-19T03:33:23.944Z,70.18
2023-05-19T03:35:52.979Z,70.85
2023-05-19T03:38:19.860Z,70.69
2023-05-19T03:40:55.036Z,71.13
2023-05-19T03:43:21.484Z,70.49
2023-05-19T03:45:53.773Z,71.18
2023-05-19T03:48:43.209Z,70.95
2023-05-19T03:51:24.522Z,70.91
2023-05-19T03:53:54.960Z,71.81
2023-05-19T03:56:23.649Z,70.95
2023-05-19T03:58:50.206Z,71.19
2023-05-19T04:01:16.673Z,71.42
2023-05-19T04:03:43.186Z,70.50
2023-05-19T04:06:09.777Z,70.69
2023-05-19T04:08:36.220Z,72.33
2023-05-19T04:11:02.780Z,71.62
2023-05-19T04:13:32.984Z,72.12
2023-05-19T04:15:59.494Z,73.43
2023-05-19T04:18:28.823Z,72.50
2023-05-19T04:20:55.798Z,73.12
2023-05-19T04:23:22.411Z,72.46
2023-05-19T04:25:49.625Z,72.74
2023-05-19T04:28:16.231Z,71.67
2023-05-19T04:30:42.972Z,71.49
2023-05-19T04:33:09.558Z,71.82
2023-05-19T04:35:38.108Z,71.92
2023-05-19T04:38:04.691Z,71.73
2023-05-19T04:40:33.388Z,71.49
2023-05-19T04:43:01.958Z,71.66
2023-05-19T04:45:28.908Z,71.64
2023-05-19T04:47:59.216Z,71.43
2023-05-19T04:50:26.206Z,71.31
2023-05-19T04:52:52.799Z,70.84
2023-05-19T04:55:19.605Z,70.80
2023-05-19T04:57:47.623Z,70.15
2023-05-19T05:00:14.496Z,71.72
2023-05-19T05:02:52.500Z,70.06
2023-05-19T05:05:21.067Z,71.14
2023-05-19T05:07:47.735Z,70.33
2023-05-19T05:10:14.419Z,70.36
2023-05-19T05:12:41.350Z,69.30
2023-05-19T05:15:08.609Z,68.97
2023-05-19T05:17:37.677Z,67.95
2023-05-19T05:20:06.240Z,66.88
2023-05-19T05:22:33.436Z,66.48
2023-05-19T05:25:01.845Z,65.37
2023-05-19T05:27:28.790Z,64.55
2023-05-19T05:29:56.452Z,64.60
2023-05-19T05:32:26.126Z,63.57
2023-05-19T05:34:52.785Z,63.47
2023-05-19T05:37:20.136Z,63.30
2023-05-19T05:39:46.694Z,63.35
2023-05-19T05:42:13.621Z,63.50
2023-05-19T05:44:40.801Z,62.74
2023-05-19T05:47:08.026Z,61.88
2023-05-19T05:49:38.110Z,62.30
2023-05-19T05:52:06.909Z,61.65
2023-05-19T05:54:41.124Z,61.42
2023-05-19T05:57:08.935Z,60.87
2023-05-19T05:59:35.454Z,60.96
2023-05-19T06:02:02.367Z,61.50
2023-05-19T06:04:28.974Z,61.24
2023-05-19T06:07:00.812Z,61.77
2023-05-19T06:09:30.706Z,61.21
2023-05-19T06:11:58.268Z,60.91
2023-05-19T06:14:26.320Z,60.71
2023-05-19T06:17:12.875Z,59.68
2023-05-19T06:19:39.549Z,58.31
2023-05-19T06:22:06.985Z,58.62
2023-05-19T06:24:33.845Z,55.10
2023-05-19T06:27:00.424Z,54.68
2023-05-19T06:29:26.955Z,55.05
2023-05-19T06:31:56.334Z,55.46
2023-05-19T06:34:22.961Z,57.68
2023-05-19T06:36:49.531Z,57.66
2023-05-19T06:39:18.575Z,55.88
2023-05-19T06:41:45.638Z,54.36
2023-05-19T06:44:25.068Z,53.82
2023-05-19T06:46:51.596Z,51.92
2023-05-19T06:49:18.979Z,53.93
2023-05-19T06:51:47.818Z,50.97
2023-05-19T06:54:15.988Z,52.02
2023-05-19T06:56:42.580Z,51.79
2023-05-19T06:59:10.282Z,50.67
2023-05-19T07:01:37.835Z,50.91
2023-05-19T07:04:04.675Z,51.11
2023-05-19T07:06:31.360Z,48.23
2023-05-19T07:08:57.800Z,49.53
2023-05-19T07:11:26.217Z,51.24
2023-05-19T07:13:53.200Z,50.11
2023-05-19T07:16:25.489Z,49.90
2023-05-19T07:18:52.155Z,49.91
2023-05-19T07:21:18.684Z,49.77
2023-05-19T07:23:46.436Z,50.95
2023-05-19T07:26:12.966Z,51.62
2023-05-19T07:28:41.455Z,51.16
2023-05-19T07:31:08.242Z,51.38
2023-05-19T07:33:34.834Z,51.04
2023-05-19T07:36:01.300Z,52.25
2023-05-19T07:38:28.762Z,51.90
2023-05-19T07:40:55.388Z,51.50
2023-05-19T07:43:21.890Z,49.92
2023-05-19T07:45:48.464Z,49.94
2023-05-19T07:48:15.193Z,49.63
2023-05-19T07:50:41.653Z,49.23
2023-05-19T07:53:08.105Z,48.70
2023-05-19T07:55:34.690Z,47.59
2023-05-19T07:58:01.115Z,49.30
2023-05-19T08:00:27.645Z,48.76
2023-05-19T08:02:54.370Z,50.07
2023-05-19T08:05:20.961Z,49.08
2023-05-19T08:07:47.504Z,48.47
2023-05-19T08:10:14.041Z,47.41
2023-05-19T08:12:40.569Z,48.11
2023-05-19T08:15:07.937Z,48.47
2023-05-19T08:17:34.477Z,47.30
2023-05-19T08:20:00.902Z,48.00
2023-05-19T08:22:27.319Z,49.30
2023-05-19T08:24:53.962Z,48.74
2023-05-19T08:27:20.750Z,49.36
2023-05-19T08:29:47.231Z,48.97
2023-05-19T08:32:13.785Z,46.89
2023-05-19T08:34:41.162Z,47.25
2023-05-19T08:37:07.688Z,47.36
2023-05-19T08:39:34.875Z,47.86
2023-05-19T08:42:02.308Z,47.90
2023-05-19T08:44:30.713Z,48.10
2023-05-19T08:47:00.934Z,47.07
2023-05-19T08:49:28.446Z,46.76
2023-05-19T08:52:06.291Z,44.48
2023-05-19T08:54:50.786Z,45.52
2023-05-19T08:57:17.965Z,45.25
2023-05-19T08:59:44.814Z,44.89
2023-05-19T09:02:14.251Z,44.21
2023-05-19T09:04:41.901Z,45.35
2023-05-19T09:07:09.334Z,45.67
2023-05-19T09:09:35.916Z,44.99
2023-05-19T09:12:02.463Z,46.82
2023-05-19T09:14:29.474Z,46.94
2023-05-19T09:16:56.063Z,47.91
2023-05-19T09:19:22.778Z,47.73
2023-05-19T09:22:00.231Z,47.77
2023-05-19T09:24:27.202Z,48.19
2023-05-19T09:27:00.211Z,45.00
2023-05-19T09:29:27.055Z,46.00
2023-05-19T09:31:56.036Z,45.57
2023-05-19T09:34:24.704Z,47.10
2023-05-19T09:36:54.416Z,45.72
2023-05-19T09:39:23.098Z,45.02
2023-05-19T09:41:54.297Z,44.48
2023-05-19T09:44:21.065Z,45.47
2023-05-19T09:46:51.390Z,43.39
2023-05-19T09:49:32.782Z,45.19
2023-05-19T09:52:02.168Z,44.65
2023-05-19T09:54:32.115Z,45.40
2023-05-19T09:57:03.642Z,44.36
2023-05-19T09:59:33.466Z,43.78
2023-05-19T10:02:02.165Z,42.81
2023-05-19T10:04:30.052Z,44.00
2023-05-19T10:06:59.483Z,44.56
2023-05-19T10:09:28.430Z,42.33
2023-05-19T10:11:56.508Z,43.19
2023-05-19T10:14:24.889Z,42.44
2023-05-19T10:16:52.951Z,44.00
2023-05-19T10:19:24.946Z,40.59
2023-05-19T10:21:51.833Z,41.36
2023-05-19T10:24:19.330Z,41.68
2023-05-19T10:26:51.194Z,42.43
2023-05-19T10:29:23.172Z,40.63
2023-05-19T10:31:52.809Z,41.09
2023-05-19T10:34:19.339Z,42.03
2023-05-19T10:36:55.955Z,40.67
2023-05-19T10:39:25.839Z,42.62
2023-05-19T10:42:13.887Z,40.63
2023-05-19T10:45:16.166Z,42.02
2023-05-19T10:47:43.516Z,40.72
2023-05-19T10:50:10.571Z,40.58
2023-05-19T10:52:38.725Z,41.78
2023-05-19T10:55:10.032Z,41.32
2023-05-19T10:57:36.723Z,41.82
2023-05-19T11:00:24.729Z,42.28
2023-05-19T11:02:56.165Z,42.14
2023-05-19T11:05:29.529Z,41.34
2023-05-19T11:08:02.157Z,41.57
2023-05-19T11:10:28.801Z,41.08
2023-05-19T11:15:27.416Z,43.49
2023-05-19T11:17:54.362Z,43.01
2023-05-19T11:20:29.470Z,42.97
2023-05-19T11:23:09.100Z,43.92
2023-05-19T11:25:50.769Z,43.72
2023-05-19T11:28:19.910Z,43.66
2023-05-19T11:30:50.602Z,43.00
2023-05-19T11:33:20.782Z,43.76
2023-05-19T11:35:50.311Z,43.06
2023-05-19T11:38:18.455Z,43.12
2023-05-19T11:40:45.070Z,43.85
2023-05-19T11:43:12.520Z,45.01
2023-05-19T11:45:39.455Z,44.24
2023-05-19T11:48:06.830Z,44.81
2023-05-19T11:50:33.536Z,45.71
2023-05-19T11:53:00.920Z,42.49
2023-05-19T11:55:27.997Z,42.50
2023-05-19T11:58:05.161Z,42.03
2023-05-19T12:00:39.968Z,42.18
2023-05-19T12:03:08.165Z,40.96
2023-05-19T12:05:41.853Z,40.69
2023-05-19T12:08:10.073Z,41.64
2023-05-19T12:10:37.171Z,41.35
2023-05-19T12:13:06.195Z,40.69
2023-05-19T12:15:33.590Z,40.47
2023-05-19T12:18:01.687Z,43.24
2023-05-19T12:20:32.362Z,41.42
2023-05-19T12:23:00.549Z,42.01
2023-05-19T12:25:27.811Z,43.07
2023-05-19T12:27:59.152Z,42.50
2023-05-19T12:30:30.317Z,42.04
2023-05-19T12:33:00.030Z,42.91
2023-05-19T12:35:37.682Z,42.97
2023-05-19T12:38:05.194Z,43.18
2023-05-19T12:40:34.043Z,42.43
2023-05-19T12:43:00.949Z,43.33
2023-05-19T12:45:28.566Z,43.91
2023-05-19T12:47:55.890Z,43.75
2023-05-19T12:50:30.850Z,43.19
2023-05-19T12:52:59.507Z,42.40
2023-05-19T12:55:26.114Z,43.33
2023-05-19T12:57:56.638Z,44.50
2023-05-19T13:00:32.459Z,43.10
2023-05-19T13:03:04.993Z,42.35
2023-05-19T13:05:36.744Z,43.20
2023-05-19T13:08:11.171Z,43.04
2023-05-19T13:10:39.592Z,44.08
2023-05-19T13:13:07.491Z,46.25
2023-05-19T13:15:36.334Z,44.53
2023-05-19T13:18:08.760Z,43.81
2023-05-19T13:20:36.826Z,43.55
2023-05-19T13:23:03.668Z,43.19
2023-05-19T13:25:30.778Z,43.52
2023-05-19T13:27:59.345Z,43.79
2023-05-19T13:30:26.036Z,44.00
2023-05-19T13:32:52.709Z,43.97
2023-05-19T13:35:20.396Z,43.78
2023-05-19T13:37:46.875Z,43.86
2023-05-19T13:40:13.582Z,44.62
2023-05-19T13:42:40.769Z,43.71
2023-05-19T13:45:07.927Z,44.73
2023-05-19T13:47:34.477Z,44.94
2023-05-19T13:50:02.247Z,46.17
2023-05-19T13:52:30.494Z,45.62
2023-05-19T13:54:57.434Z,45.88
2023-05-19T13:57:24.262Z,46.43
2023-05-19T14:00:02.026Z,46.49
2023-05-19T14:02:38.617Z,45.57
2023-05-19T14:05:07.025Z,45.29
2023-05-19T14:07:34.977Z,44.78
2023-05-19T14:10:03.872Z,45.46
2023-05-19T14:12:41.392Z,44.44
2023-05-19T14:15:14.113Z,44.25
2023-05-19T14:17:40.585Z,43.11
2023-05-19T14:20:07.658Z,43.37
2023-05-19T14:22:34.120Z,43.58
2023-05-19T14:25:00.827Z,44.66
2023-05-19T14:27:27.283Z,44.30
2023-05-19T14:29:53.987Z,44.54
2023-05-19T14:32:20.804Z,44.52
2023-05-19T14:34:47.474Z,44.02
2023-05-19T14:37:14.016Z,44.57
2023-05-19T14:39:40.575Z,44.99
2023-05-19T14:42:07.008Z,44.66
2023-05-19T14:44:33.497Z,44.75
2023-05-19T14:47:01.858Z,44.98
2023-05-19T14:49:28.349Z,45.26
2023-05-19T14:51:55.116Z,45.45
2023-05-19T14:54:21.892Z,45.51
2023-05-19T14:56:48.334Z,45.92
2023-05-19T14:59:14.822Z,45.96
2023-05-19T15:01:41.398Z,45.13
2023-05-19T15:04:07.897Z,45.23
2023-05-19T15:06:34.412Z,45.23
2023-05-19T15:09:00.944Z,45.30
2023-05-19T15:11:27.436Z,45.79
2023-05-19T15:13:53.992Z,45.31
2023-05-19T15:16:20.451Z,45.02
2023-05-19T15:18:46.921Z,44.79
2023-05-19T15:21:13.447Z,45.50
2023-05-19T15:23:39.905Z,45.38
2023-05-19T15:26:06.755Z,44.61
2023-05-19T15:28:33.593Z,45.18
2023-05-19T15:31:00.198Z,45.42
2023-05-19T15:33:26.721Z,44.53
2023-05-19T15:35:53.364Z,44.77
2023-05-19T15:38:20.485Z,44.72
2023-05-19T15:40:47.188Z,45.01
2023-05-19T15:43:14.055Z,44.74
2023-05-19T15:45:40.972Z,44.41
2023-05-19T15:48:07.573Z,45.26
2023-05-19T15:50:34.490Z,45.51
2023-05-19T15:53:01.235Z,45.34
2023-05-19T15:55:27.769Z,45.27
2023-05-19T15:57:54.265Z,45.15
2023-05-19T16:00:20.949Z,45.21
2023-05-19T16:02:47.531Z,45.72
2023-05-19T16:05:14.123Z,44.60
2023-05-19T16:07:41.990Z,44.64
2023-05-19T16:10:08.868Z,45.70
2023-05-19T16:12:36.576Z,45.97
2023-05-19T16:15:03.435Z,44.81
2023-05-19T16:17:29.998Z,45.02
2023-05-19T16:19:56.605Z,44.60
2023-05-19T16:22:24.689Z,45.56
2023-05-19T16:24:52.117Z,45.23
2023-05-19T16:27:18.799Z,45.01
2023-05-19T16:29:45.565Z,45.32
2023-05-19T16:32:12.646Z,45.55
2023-05-19T16:34:39.566Z,45.76
2023-05-19T16:37:06.080Z,45.14
2023-05-19T16:39:32.741Z,45.78
2023-05-19T16:41:59.237Z,45.45
2023-05-19T16:44:26.003Z,46.02
2023-05-19T16:46:52.472Z,45.57
2023-05-19T16:49:18.985Z,44.84
2023-05-19T16:51:46.832Z,45.65
2023-05-19T16:54:14.654Z,45.51
2023-05-19T16:56:41.268Z,44.96
2023-05-19T16:59:09.318Z,45.28
2023-05-19T17:01:35.893Z,45.10
2023-05-19T17:04:02.657Z,45.71
2023-05-19T17:06:29.153Z,45.96
2023-05-19T17:08:55.654Z,46.10
2023-05-19T17:11:22.207Z,45.83
2023-05-19T17:13:48.642Z,45.97
2023-05-19T17:16:15.424Z,46.99
2023-05-19T17:18:41.988Z,46.40
2023-05-19T17:21:08.553Z,46.46
2023-05-19T17:23:35.038Z,46.58
2023-05-19T17:26:01.852Z,47.15
2023-05-19T17:28:28.450Z,46.99
2023-05-19T17:30:54.935Z,46.24
2023-05-19T17:33:21.472Z,47.36
2023-05-19T17:35:48.002Z,47.30
2023-05-19T17:38:14.564Z,47.12
2023-05-19T17:40:42.140Z,47.35
2023-05-19T17:43:08.781Z,46.87
2023-05-19T17:45:35.588Z,46.78
2023-05-19T17:48:02.273Z,46.52
2023-05-19T17:50:28.804Z,47.31
2023-05-19T17:52:56.178Z,46.99
2023-05-19T17:55:24.728Z,46.59
2023-05-19T17:57:51.349Z,46.90
2023-05-19T18:00:18.612Z,47.04
2023-05-19T18:02:45.475Z,46.75
2023-05-19T18:05:12.692Z,46.78
2023-05-19T18:07:40.172Z,47.03
2023-05-19T18:10:08.218Z,46.86
2023-05-19T18:12:34.716Z,46.89
2023-05-19T18:15:01.332Z,47.00
2023-05-19T18:17:27.814Z,46.90
2023-05-19T18:19:54.585Z,47.18
2023-05-19T18:22:21.234Z,47.12
2023-05-19T18:24:47.829Z,46.46
2023-05-19T18:27:14.282Z,47.10
2023-05-19T18:29:40.843Z,47.43
2023-05-19T18:32:07.794Z,47.84
2023-05-19T18:34:34.365Z,48.55
2023-05-19T18:37:00.902Z,48.82
2023-05-19T18:39:29.240Z,49.16
2023-05-19T18:41:55.890Z,50.21
2023-05-19T18:44:22.469Z,50.86
2023-05-19T18:46:48.975Z,51.27
2023-05-19T18:49:15.695Z,52.00
2023-05-19T18:51:42.494Z,52.86
2023-05-19T18:54:09.051Z,52.97
2023-05-19T18:56:35.683Z,52.06
2023-05-19T18:59:02.324Z,52.28
2023-05-19T19:01:28.997Z,52.71
2023-05-19T19:03:55.730Z,52.46
2023-05-19T19:06:23.274Z,52.35
2023-05-19T19:08:50.143Z,52.29
2023-05-19T19:11:16.654Z,52.66
2023-05-19T19:13:43.692Z,52.69
2023-05-19T19:16:10.694Z,53.17
2023-05-19T19:18:37.243Z,53.91
2023-05-19T19:21:05.800Z,54.78
2023-05-19T19:23:32.678Z,54.99
2023-05-19T19:25:59.142Z,55.84
2023-05-19T19:28:25.792Z,56.18
2023-05-19T19:30:52.265Z,56.51
2023-05-19T19:33:18.873Z,56.71
2023-05-19T19:35:46.959Z,57.30
2023-05-19T19:38:13.687Z,57.07
2023-05-19T19:40:40.181Z,57.08
2023-05-19T19:43:06.685Z,56.01
2023-05-19T19:45:34.718Z,55.96
2023-05-19T19:48:01.671Z,55.63
2023-05-19T19:50:28.368Z,55.16
2023-05-19T19:52:54.837Z,54.63
2023-05-19T19:55:21.574Z,54.77
2023-05-19T19:57:49.453Z,55.34
2023-05-19T20:00:16.549Z,55.54
2023-05-19T20:02:55.818Z,55.35
2023-05-19T20:05:29.801Z,53.81
2023-05-19T20:07:56.282Z,52.99
2023-05-19T20:10:22.741Z,53.79
2023-05-19T20:12:50.557Z,53.82
2023-05-19T20:15:17.270Z,53.46
2023-05-19T20:17:43.807Z,53.28
2023-05-19T20:20:12.227Z,53.38
2023-05-19T20:22:39.197Z,53.28
2023-05-19T20:25:06.500Z,51.98
2023-05-19T20:27:33.176Z,52.38
2023-05-19T20:29:59.723Z,52.08
2023-05-19T20:32:26.197Z,52.68
2023-05-19T20:34:52.737Z,52.45
2023-05-19T20:37:19.178Z,52.79
2023-05-19T20:39:45.622Z,52.43
2023-05-19T20:42:12.247Z,52.97
2023-05-19T20:44:38.752Z,53.17
2023-05-19T20:47:07.896Z,52.91
2023-05-19T20:49:35.146Z,52.39
2023-05-19T20:52:01.672Z,52.38
2023-05-19T20:54:28.181Z,52.30
2023-05-19T20:56:54.812Z,52.35
2023-05-19T20:59:21.320Z,52.11
2023-05-19T21:01:48.033Z,52.01
2023-05-19T21:04:14.678Z,51.98
2023-05-19T21:06:41.283Z,51.39
2023-05-19T21:09:07.893Z,50.46
2023-05-19T21:11:34.621Z,50.69
2023-05-19T21:14:04.122Z,50.60
2023-05-19T21:16:31.241Z,50.64
2023-05-19T21:18:58.021Z,50.86
2023-05-19T21:21:24.569Z,50.95
2023-05-19T21:23:51.106Z,50.71
2023-05-19T21:26:17.893Z,50.13
2023-05-19T21:28:44.340Z,50.13
2023-05-19T21:31:10.961Z,50.88
2023-05-19T21:33:37.557Z,50.38
2023-05-19T21:36:04.229Z,50.58
2023-05-19T21:38:30.937Z,49.94
2023-05-19T21:40:57.588Z,50.17
2023-05-19T21:43:24.073Z,49.89
2023-05-19T21:45:50.759Z,50.09
2023-05-19T21:48:17.649Z,50.12
2023-05-19T21:50:44.293Z,50.43
2023-05-19T21:53:10.837Z,50.21
2023-05-19T21:55:37.388Z,50.36
2023-05-19T21:58:03.829Z,50.04
2023-05-19T22:00:30.321Z,50.54
2023-05-19T22:02:57.007Z,49.99
2023-05-19T22:05:23.527Z,50.40
2023-05-19T22:07:50.103Z,50.49
2023-05-19T22:10:16.550Z,50.97
2023-05-19T22:12:43.012Z,50.75
2023-05-19T22:15:10.318Z,51.05
2023-05-19T22:17:37.032Z,51.30
2023-05-19T22:20:03.952Z,51.58
2023-05-19T22:22:30.496Z,51.53
2023-05-19T22:24:57.240Z,51.80
2023-05-19T22:27:23.720Z,52.06
2023-05-19T22:29:50.490Z,52.22
2023-05-19T22:32:18.378Z,51.67
2023-05-19T22:34:45.217Z,51.91
2023-05-19T22:37:11.967Z,52.61
2023-05-19T22:39:38.994Z,52.97
2023-05-19T22:42:05.862Z,52.79
2023-05-19T22:44:32.432Z,52.65
2023-05-19T22:46:58.954Z,53.04
2023-05-19T22:49:27.267Z,53.06
2023-05-19T22:51:53.759Z,53.14
2023-05-19T22:54:20.315Z,53.67
2023-05-19T22:56:48.681Z,53.01
2023-05-19T22:59:17.590Z,53.59
2023-05-19T23:01:46.549Z,53.98
2023-05-19T23:04:13.838Z,53.58
2023-05-19T23:06:41.297Z,53.73
2023-05-19T23:09:08.043Z,53.69
2023-05-19T23:11:35.752Z,54.22
2023-05-19T23:14:02.336Z,53.99
2023-05-19T23:16:28.826Z,54.24
2023-05-19T23:18:55.426Z,54.47
2023-05-19T23:21:22.032Z,54.10
2023-05-19T23:23:49.300Z,54.18
2023-05-19T23:26:16.072Z,54.78
2023-05-19T23:28:42.941Z,54.56
2023-05-19T23:31:09.531Z,54.69
2023-05-19T23:33:36.197Z,55.25
2023-05-19T23:36:10.284Z,54.69
2023-05-19T23:38:37.425Z,55.18
2023-05-19T23:41:05.038Z,55.23
2023-05-19T23:43:34.457Z,55.48
2023-05-19T23:46:01.142Z,55.90
2023-05-19T23:48:31.252Z,55.75
2023-05-19T23:50:58.217Z,55.72
2023-05-19T23:53:24.964Z,56.00
2023-05-19T23:55:51.623Z,56.20
2023-05-19T23:58:18.270Z,56.69
